LGAD/PYR METAR and TAF weather

Enter ICAO airport designator
Station Type Date Time Source
LGAD METAR 2020/01/20 21:50 UTC NOAA

LGAD 202150Z 00000KT 9999 FEW080 05/01 Q1036


Station Type Date Time Source
LGAD Decoded METAR 2020/01/20 21:50 UTC NOAA

Andravida Airport , Greece (LGAD) 37-55N 021-17E 14M
Jan 20, 2020 - 04:50 PM EST / 2020.01.20 2150 UTC
Wind: Calm:0
Visibility: greater than 7 mile(s):0
Sky conditions: mostly clear
Temperature: 41 F (5 C)
Dew Point: 33 F (1 C)
Relative Humidity: 75%
Pressure (altimeter): 30.59 in. Hg (1036 hPa)
ob: LGAD 202150Z 00000KT 9999 FEW080 05/01 Q1036
cycle: 22

Station Type Date Time Source
LGAD TAF 2019/11/28 15:39 UTC NOAA

TAF TAF LGAD 281400Z 2815/2903 21012KT 9999 SCT020 SCT080 PROB40
TEMPO 2815/2903 6000 RA SCT020 BKN080 PROB30
TEMPO 2822/2903 3000 TSRA FEW018CB SCT020 BKN080

Example: see airport list